Helmsley, United Kingdom
Current Conditions -  °F | °C
As of 7:50 AM on Sunday 26 Oct 2014 (Local Time) from EGXZ Reporting Station
Scattered Clouds Scattered Clouds  
Wind Chill: 12°   Ceiling: Unl
Heat Index: 12°   Visibility: 6mi
Dew Point:   Wind: 15mph
Humidity: 82%   Direction: 220°SW
Pressure: 29.91"   Gusts: NA
Location:  54.25°N, 1.06°W
Report Text: EGXZ 260650Z AUTO 22013KT 9999 FEW017/// SCT210/// 12/09 Q1013
Loading
Personal Weather Stations






























Interactive Weather Map
Tropical Storm Tracking
New forecast layout! Learn more

10-Day Weather Forecast

Advertisements
Track Severe Weather on mobile